createdAt,value
2023-01-29T00:01:20.283Z,102192.16
2023-01-29T00:03:55.564Z,102194.59
2023-01-29T00:09:28.173Z,102191.50
2023-01-29T00:12:19.869Z,102184.16
2023-01-29T00:14:48.672Z,102177.06
2023-01-29T00:17:31.467Z,102186.81
2023-01-29T00:20:07.336Z,102177.81
2023-01-29T00:22:51.282Z,102171.31
2023-01-29T00:25:20.921Z,102175.91
2023-01-29T00:31:06.325Z,102174.06
2023-01-29T00:33:53.812Z,102171.63
2023-01-29T00:36:25.679Z,102166.28
2023-01-29T00:39:11.100Z,102175.38
2023-01-29T00:42:05.543Z,102169.06
2023-01-29T00:44:55.712Z,102170.78
2023-01-29T00:47:40.392Z,102171.41
2023-01-29T00:50:17.697Z,102177.38
2023-01-29T00:52:54.042Z,102167.53
2023-01-29T00:55:21.962Z,102171.81
2023-01-29T00:57:49.976Z,102175.25
2023-01-29T01:00:34.198Z,102175.78
2023-01-29T01:03:07.635Z,102171.16
2023-01-29T01:05:42.248Z,102169.06
2023-01-29T01:08:36.637Z,102170.75
2023-01-29T01:11:07.798Z,102168.94
2023-01-29T01:13:44.339Z,102156.66
2023-01-29T01:16:28.158Z,102158.44
2023-01-29T01:19:01.081Z,102154.09
2023-01-29T01:21:38.641Z,102154.09
2023-01-29T01:24:07.475Z,102147.25
2023-01-29T01:26:36.549Z,102138.47
2023-01-29T01:29:04.618Z,102140.63
2023-01-29T01:31:42.178Z,102130.56
2023-01-29T01:34:21.771Z,102131.41
2023-01-29T01:36:55.654Z,102115.19
2023-01-29T01:39:42.275Z,102119.88
2023-01-29T01:45:12.005Z,102118.59
2023-01-29T01:48:01.188Z,102116.56
2023-01-29T01:50:43.272Z,102111.22
2023-01-29T01:53:14.420Z,102112.09
2023-01-29T01:55:51.698Z,102110.78
2023-01-29T02:01:10.832Z,102116.16
2023-01-29T02:04:04.343Z,102113.38
2023-01-29T02:06:51.843Z,102116.16
2023-01-29T02:09:40.341Z,102117.97
2023-01-29T02:12:23.048Z,102116.91
2023-01-29T02:17:56.286Z,102125.34
2023-01-29T02:20:29.121Z,102121.72
2023-01-29T02:23:16.064Z,102138.28
2023-01-29T02:26:21.989Z,102136.16
2023-01-29T02:29:25.606Z,102138.47
2023-01-29T02:32:06.720Z,102146.91
2023-01-29T02:35:03.362Z,102152.59
2023-01-29T02:37:37.860Z,102153.25
2023-01-29T02:40:19.225Z,102158.91
2023-01-29T02:42:56.837Z,102163.72
2023-01-29T02:45:35.359Z,102153.88
2023-01-29T02:48:09.758Z,102156.00
2023-01-29T02:50:56.682Z,102160.94
2023-01-29T02:53:32.322Z,102153.56
2023-01-29T02:56:11.552Z,102154.84
2023-01-29T02:58:53.261Z,102155.91
2023-01-29T03:01:46.807Z,102153.66
2023-01-29T03:04:26.744Z,102141.25
2023-01-29T03:07:00.385Z,102139.13
2023-01-29T03:09:41.043Z,102135.69
2023-01-29T03:12:29.366Z,102132.06
2023-01-29T03:15:13.230Z,102132.81
2023-01-29T03:17:58.985Z,102123.50
2023-01-29T03:23:28.042Z,102114.53
2023-01-29T03:26:18.069Z,102119.66
2023-01-29T03:29:14.237Z,102122.56
2023-01-29T03:32:02.681Z,102121.72
2023-01-29T03:34:44.791Z,102114.44
2023-01-29T03:37:25.866Z,102116.91
2023-01-29T03:40:17.132Z,102120.84
2023-01-29T03:43:02.972Z,102117.88
2023-01-29T03:45:48.177Z,102106.81
2023-01-29T03:48:37.191Z,102103.84
2023-01-29T03:51:35.412Z,102107.16
2023-01-29T03:54:10.908Z,102114.72
2023-01-29T03:56:57.261Z,102102.00
2023-01-29T03:59:40.087Z,102101.38
2023-01-29T04:02:28.431Z,102096.91
2023-01-29T04:05:08.637Z,102096.13
2023-01-29T04:07:41.494Z,102089.31
2023-01-29T04:10:19.897Z,102080.56
2023-01-29T04:12:58.273Z,102079.16
2023-01-29T04:15:40.596Z,102080.75
2023-01-29T04:18:10.041Z,102068.59
2023-01-29T04:20:38.667Z,102057.59
2023-01-29T04:23:24.830Z,102058.13
2023-01-29T04:26:18.877Z,102055.97
2023-01-29T04:28:59.828Z,102042.28
2023-01-29T04:31:33.673Z,102031.72
2023-01-29T04:34:14.558Z,102028.22
2023-01-29T04:37:06.121Z,102031.41
2023-01-29T04:40:00.392Z,102029.47
2023-01-29T04:42:34.590Z,102013.88
2023-01-29T04:48:27.078Z,102020.28
2023-01-29T04:51:06.746Z,102020.16
2023-01-29T04:53:45.220Z,102020.47
2023-01-29T04:56:23.391Z,102017.53
2023-01-29T04:59:00.142Z,102013.44
2023-01-29T05:01:33.720Z,102012.28
2023-01-29T05:04:19.900Z,102008.09
2023-01-29T05:06:50.791Z,102007.25
2023-01-29T05:09:24.957Z,102005.75
2023-01-29T05:11:59.094Z,102010.03
2023-01-29T05:14:33.781Z,102011.50
2023-01-29T05:17:07.265Z,102017.50
2023-01-29T05:19:38.628Z,101997.81
2023-01-29T05:22:10.203Z,101997.59
2023-01-29T05:24:39.166Z,102000.81
2023-01-29T05:27:31.127Z,102004.34
2023-01-29T05:29:59.231Z,102013.94
2023-01-29T05:32:31.521Z,102003.19
2023-01-29T05:35:02.684Z,102010.34
2023-01-29T05:37:33.648Z,102019.34
2023-01-29T05:40:02.181Z,102017.28
2023-01-29T05:42:37.448Z,102017.50
2023-01-29T05:45:06.975Z,102025.16
2023-01-29T05:47:36.849Z,102021.84
2023-01-29T05:50:16.094Z,102015.91
2023-01-29T05:52:49.189Z,102018.44
2023-01-29T05:55:17.307Z,102028.38
2023-01-29T05:57:48.123Z,102025.84
2023-01-29T06:00:27.835Z,102035.69
2023-01-29T06:03:02.151Z,102048.69
2023-01-29T06:05:30.919Z,102045.47
2023-01-29T06:08:02.687Z,102035.13
2023-01-29T06:10:33.323Z,102025.19
2023-01-29T06:13:05.121Z,102033.53
2023-01-29T06:15:45.282Z,102038.00
2023-01-29T06:18:15.520Z,102042.91
2023-01-29T06:20:47.188Z,102029.91
2023-01-29T06:23:23.209Z,102024.13
2023-01-29T06:26:03.325Z,102032.13
2023-01-29T06:28:50.893Z,102040.16
2023-01-29T06:34:06.636Z,102030.09
2023-01-29T06:36:34.543Z,102030.97
2023-01-29T06:39:04.640Z,102034.47
2023-01-29T06:41:32.508Z,102033.19
2023-01-29T06:44:11.675Z,102034.06
2023-01-29T06:49:41.461Z,102032.22
2023-01-29T06:52:09.334Z,102027.19
2023-01-29T06:54:37.289Z,102027.84
2023-01-29T06:57:05.715Z,102039.28
2023-01-29T06:59:46.192Z,102042.94
2023-01-29T07:02:17.334Z,102065.91
2023-01-29T07:04:49.850Z,102067.31
2023-01-29T07:07:19.484Z,102062.94
2023-01-29T07:09:47.840Z,102066.44
2023-01-29T07:12:19.748Z,102064.44
2023-01-29T07:14:50.556Z,102065.19
2023-01-29T07:17:21.268Z,102072.00
2023-01-29T07:19:51.710Z,102056.81
2023-01-29T07:22:27.952Z,102057.25
2023-01-29T07:24:56.456Z,102054.69
2023-01-29T07:27:24.848Z,102067.94
2023-01-29T07:29:59.084Z,102047.63
2023-01-29T07:32:31.752Z,102030.44
2023-01-29T07:35:01.877Z,102019.44
2023-01-29T07:37:30.398Z,102034.06
2023-01-29T07:40:01.201Z,102030.75
2023-01-29T07:42:49.517Z,102031.41
2023-01-29T07:45:25.896Z,102032.25
2023-01-29T07:48:13.921Z,102028.94
2023-01-29T07:50:44.847Z,102031.19
2023-01-29T07:53:16.415Z,102013.13
2023-01-29T07:55:46.555Z,101993.69
2023-01-29T07:58:19.827Z,101989.53
2023-01-29T08:00:52.732Z,101982.25
2023-01-29T08:03:23.924Z,101995.50
2023-01-29T08:05:56.807Z,101999.88
2023-01-29T08:08:29.210Z,102004.28
2023-01-29T08:10:57.695Z,102006.59
2023-01-29T08:13:32.736Z,102008.84
2023-01-29T08:16:10.051Z,102002.31
2023-01-29T08:18:38.924Z,101998.41
2023-01-29T08:21:14.109Z,102005.22
2023-01-29T08:23:42.453Z,101996.97
2023-01-29T08:26:14.321Z,102005.75
2023-01-29T08:29:02.036Z,101997.75
2023-01-29T08:31:35.886Z,102002.44
2023-01-29T08:34:05.053Z,102006.19
2023-01-29T08:36:45.997Z,102001.50
2023-01-29T08:39:18.729Z,102007.47
2023-01-29T08:41:54.618Z,102004.69
2023-01-29T08:44:30.451Z,101999.09
2023-01-29T08:49:57.929Z,101990.50
2023-01-29T08:52:26.874Z,101992.72
2023-01-29T08:54:58.430Z,101985.22
2023-01-29T08:57:28.934Z,101988.84
2023-01-29T09:00:00.688Z,101991.84
2023-01-29T09:02:44.716Z,101989.97
2023-01-29T09:05:12.486Z,101982.59
2023-01-29T09:07:40.592Z,101973.94
2023-01-29T09:10:09.445Z,101984.63
2023-01-29T09:12:38.120Z,101976.50
2023-01-29T09:15:06.770Z,101968.16
2023-01-29T09:17:40.984Z,101961.78
2023-01-29T09:20:14.756Z,101953.53
2023-01-29T09:22:46.279Z,101955.53
2023-01-29T09:25:18.624Z,101954.34
2023-01-29T09:27:47.084Z,101950.84
2023-01-29T09:30:21.910Z,101947.66
2023-01-29T09:32:53.658Z,101944.84
2023-01-29T09:35:25.254Z,101947.53
2023-01-29T09:40:53.923Z,101945.56
2023-01-29T09:43:56.056Z,101943.50
2023-01-29T09:46:34.830Z,101945.00
2023-01-29T09:49:12.111Z,101940.53
2023-01-29T09:51:49.540Z,101935.06
2023-01-29T09:54:26.007Z,101935.91
2023-01-29T09:56:57.976Z,101951.09
2023-01-29T09:59:30.575Z,101923.56
2023-01-29T10:02:10.947Z,101929.06
2023-01-29T10:05:04.378Z,101924.41
2023-01-29T10:07:52.950Z,101919.94
2023-01-29T10:10:34.544Z,101918.50
2023-01-29T10:13:12.228Z,101919.84
2023-01-29T10:16:03.130Z,101918.31
2023-01-29T10:18:47.810Z,101924.09
2023-01-29T10:21:53.713Z,101926.28
2023-01-29T10:24:37.682Z,101924.97
2023-01-29T10:27:17.713Z,101920.97
2023-01-29T10:29:48.487Z,101923.41
2023-01-29T10:32:24.937Z,101926.00
2023-01-29T10:35:08.087Z,101923.06
2023-01-29T10:37:44.224Z,101927.47
2023-01-29T10:40:23.893Z,101927.22
2023-01-29T10:46:17.167Z,101921.03
2023-01-29T10:49:06.599Z,101903.44
2023-01-29T10:51:53.291Z,101902.00
2023-01-29T10:54:37.855Z,101894.72
2023-01-29T10:57:15.850Z,101890.81
2023-01-29T11:00:07.471Z,101881.22
2023-01-29T11:02:35.483Z,101872.06
2023-01-29T11:05:03.499Z,101868.53
2023-01-29T11:07:32.056Z,101861.81
2023-01-29T11:10:08.697Z,101857.94
2023-01-29T11:12:39.721Z,101861.13
2023-01-29T11:15:17.031Z,101859.16
2023-01-29T11:18:03.885Z,101861.81
2023-01-29T11:20:35.232Z,101850.78
2023-01-29T11:23:03.475Z,101844.34
2023-01-29T11:25:32.952Z,101839.59
2023-01-29T11:28:05.195Z,101842.84
2023-01-29T11:30:38.373Z,101836.19
2023-01-29T11:33:11.170Z,101835.94
2023-01-29T11:35:39.082Z,101823.66
2023-01-29T11:38:20.324Z,101819.06
2023-01-29T11:40:48.597Z,101816.34
2023-01-29T11:43:26.881Z,101806.75
2023-01-29T11:46:06.997Z,101805.91
2023-01-29T11:48:42.390Z,101798.59
2023-01-29T11:51:22.320Z,101802.28
2023-01-29T11:53:53.742Z,101788.78
2023-01-29T11:56:29.983Z,101773.06
2023-01-29T11:59:02.584Z,101773.44
2023-01-29T12:01:37.718Z,101779.53
2023-01-29T12:04:17.459Z,101765.78
2023-01-29T12:06:49.015Z,101777.47
2023-01-29T12:09:19.472Z,101773.09
2023-01-29T12:11:52.586Z,101764.69
2023-01-29T12:14:33.945Z,101765.78
2023-01-29T12:17:09.075Z,101766.41
2023-01-29T12:19:43.679Z,101759.47
2023-01-29T12:22:18.307Z,101749.50
2023-01-29T12:24:55.913Z,101750.97
2023-01-29T12:27:27.792Z,101749.25
2023-01-29T12:30:05.243Z,101748.28
2023-01-29T12:32:44.216Z,101748.03
2023-01-29T12:35:18.385Z,101748.78
2023-01-29T12:37:55.057Z,101749.63
2023-01-29T12:40:27.235Z,101753.63
2023-01-29T12:43:01.563Z,101749.00
2023-01-29T12:45:33.105Z,101748.53
2023-01-29T12:48:07.203Z,101746.06
2023-01-29T12:50:37.136Z,101735.88
2023-01-29T12:53:17.077Z,101728.47
2023-01-29T12:55:48.129Z,101723.59
2023-01-29T12:58:17.582Z,101724.44
2023-01-29T13:00:49.509Z,101722.41
2023-01-29T13:03:22.211Z,101725.66
2023-01-29T13:05:52.916Z,101716.66
2023-01-29T13:08:25.499Z,101700.75
2023-01-29T13:10:55.766Z,101702.94
2023-01-29T13:13:29.753Z,101706.84
2023-01-29T13:16:03.501Z,101695.50
2023-01-29T13:18:41.850Z,101689.09
2023-01-29T13:21:14.475Z,101698.06
2023-01-29T13:23:47.019Z,101680.31
2023-01-29T13:26:18.756Z,101682.50
2023-01-29T13:28:47.265Z,101674.00
2023-01-29T13:31:24.909Z,101678.00
2023-01-29T13:33:56.207Z,101675.94
2023-01-29T13:36:28.925Z,101676.41
2023-01-29T13:39:03.715Z,101679.69
2023-01-29T13:41:36.705Z,101678.34
2023-01-29T13:44:09.118Z,101663.03
2023-01-29T13:46:42.684Z,101651.72
2023-01-29T13:49:29.378Z,101644.94
2023-01-29T13:51:58.400Z,101647.94
2023-01-29T13:54:27.851Z,101644.44
2023-01-29T13:57:01.796Z,101642.38
2023-01-29T13:59:53.035Z,101633.63
2023-01-29T14:02:25.385Z,101624.66
2023-01-29T14:04:53.393Z,101628.31
2023-01-29T14:07:50.780Z,101625.75
2023-01-29T14:10:21.846Z,101626.59
2023-01-29T14:12:54.238Z,101621.75
2023-01-29T14:15:33.061Z,101615.28
2023-01-29T14:18:14.666Z,101625.75
2023-01-29T14:20:52.312Z,101624.28
2023-01-29T14:23:28.459Z,101615.28
2023-01-29T14:25:57.138Z,101617.59
2023-01-29T14:28:27.380Z,101609.72
2023-01-29T14:30:56.230Z,101609.22
2023-01-29T14:33:29.346Z,101606.78
2023-01-29T14:35:58.640Z,101599.13
2023-01-29T14:38:29.528Z,101596.09
2023-01-29T14:41:08.526Z,101602.66
2023-01-29T14:43:36.303Z,101588.34
2023-01-29T14:46:40.469Z,101597.31
2023-01-29T14:49:10.356Z,101604.09
2023-01-29T14:51:42.525Z,101598.28
2023-01-29T14:54:19.973Z,101594.09
2023-01-29T14:56:57.363Z,101594.56
2023-01-29T14:59:30.755Z,101592.44
2023-01-29T15:02:03.226Z,101591.28
2023-01-29T15:04:39.664Z,101596.66
2023-01-29T15:07:18.866Z,101590.13
2023-01-29T15:09:49.293Z,101598.91
2023-01-29T15:12:26.465Z,101589.06
2023-01-29T15:15:04.340Z,101591.63
2023-01-29T15:17:37.417Z,101592.34
2023-01-29T15:20:28.087Z,101589.53
2023-01-29T15:22:55.694Z,101588.81
2023-01-29T15:25:23.717Z,101588.56
2023-01-29T15:27:52.232Z,101592.19
2023-01-29T15:30:23.395Z,101585.53
2023-01-29T15:32:52.445Z,101578.53
2023-01-29T15:35:29.085Z,101576.25
2023-01-29T15:38:01.825Z,101571.75
2023-01-29T15:40:29.904Z,101568.59
2023-01-29T15:42:57.656Z,101563.50
2023-01-29T15:45:29.139Z,101557.47
2023-01-29T15:48:02.199Z,101563.53
2023-01-29T15:50:35.410Z,101550.81
2023-01-29T15:53:07.639Z,101555.75
2023-01-29T15:55:36.848Z,101555.28
2023-01-29T15:58:05.362Z,101548.97
2023-01-29T16:00:34.515Z,101543.53
2023-01-29T16:03:14.588Z,101540.59
2023-01-29T16:05:44.143Z,101539.16
2023-01-29T16:08:15.640Z,101528.81
2023-01-29T16:10:45.049Z,101532.59
2023-01-29T16:13:21.857Z,101522.50
2023-01-29T16:15:56.820Z,101524.81
2023-01-29T16:18:32.392Z,101526.41
2023-01-29T16:21:08.709Z,101518.75
2023-01-29T16:23:41.392Z,101514.13
2023-01-29T16:26:13.740Z,101512.66
2023-01-29T16:28:44.761Z,101504.28
2023-01-29T16:31:15.312Z,101510.81
2023-01-29T16:33:45.297Z,101505.38
2023-01-29T16:36:18.604Z,101500.03
2023-01-29T16:38:50.392Z,101495.16
2023-01-29T16:41:31.116Z,101497.97
2023-01-29T16:44:00.021Z,101493.13
2023-01-29T16:46:34.018Z,101479.03
2023-01-29T16:49:02.116Z,101476.44
2023-01-29T16:51:36.969Z,101473.50
2023-01-29T16:54:09.097Z,101467.34
2023-01-29T16:56:38.953Z,101460.28
2023-01-29T16:59:07.828Z,101465.28
2023-01-29T17:01:37.158Z,101453.50
2023-01-29T17:04:09.830Z,101447.19
2023-01-29T17:06:41.403Z,101440.50
2023-01-29T17:09:09.591Z,101435.81
2023-01-29T17:11:39.474Z,101433.00
2023-01-29T17:14:09.039Z,101442.94
2023-01-29T17:16:50.499Z,101443.44
2023-01-29T17:19:22.829Z,101436.00
2023-01-29T17:21:52.042Z,101439.53
2023-01-29T17:24:19.724Z,101434.91
2023-01-29T17:26:47.360Z,101445.06
2023-01-29T17:29:16.388Z,101440.13
2023-01-29T17:31:44.388Z,101445.59
2023-01-29T17:34:14.234Z,101434.31
2023-01-29T17:36:42.105Z,101450.59
2023-01-29T17:39:18.622Z,101434.31
2023-01-29T17:41:49.421Z,101431.97
2023-01-29T17:44:17.103Z,101431.50
2023-01-29T17:46:46.076Z,101417.03
2023-01-29T17:49:23.353Z,101412.66
2023-01-29T17:51:51.553Z,101398.88
2023-01-29T17:54:21.545Z,101408.09
2023-01-29T17:56:49.699Z,101400.47
2023-01-29T17:59:19.233Z,101408.47
2023-01-29T18:01:47.240Z,101393.91
2023-01-29T18:04:15.405Z,101396.56
2023-01-29T18:06:45.275Z,101395.47
2023-01-29T18:09:18.690Z,101390.38
2023-01-29T18:11:48.489Z,101381.88
2023-01-29T18:14:19.872Z,101386.69
2023-01-29T18:16:47.849Z,101383.19
2023-01-29T18:19:21.474Z,101380.19
2023-01-29T18:21:49.601Z,101371.66
2023-01-29T18:24:17.745Z,101367.78
2023-01-29T18:26:46.897Z,101355.31
2023-01-29T18:29:14.646Z,101359.97
2023-01-29T18:31:42.378Z,101363.53
2023-01-29T18:34:10.350Z,101357.91
2023-01-29T18:36:38.497Z,101357.91
2023-01-29T18:39:06.281Z,101349.28
2023-01-29T18:41:34.754Z,101351.84
2023-01-29T18:44:03.835Z,101353.97
2023-01-29T18:46:31.583Z,101350.78
2023-01-29T18:48:59.315Z,101356.25
2023-01-29T18:51:27.111Z,101340.94
2023-01-29T18:53:55.028Z,101338.59
2023-01-29T18:56:22.751Z,101333.47
2023-01-29T18:58:55.362Z,101326.34
2023-01-29T19:01:24.986Z,101314.88
2023-01-29T19:03:52.797Z,101316.91
2023-01-29T19:06:20.586Z,101303.94
2023-01-29T19:08:48.326Z,101293.13
2023-01-29T19:11:15.952Z,101291.69
2023-01-29T19:13:46.011Z,101286.66
2023-01-29T19:16:14.173Z,101276.63
2023-01-29T19:18:43.604Z,101275.19
2023-01-29T19:21:14.017Z,101276.88
2023-01-29T19:23:42.464Z,101256.63
2023-01-29T19:26:11.771Z,101256.66
2023-01-29T19:28:39.629Z,101243.75
2023-01-29T19:31:07.892Z,101229.56
2023-01-29T19:33:36.361Z,101232.06
2023-01-29T19:36:06.359Z,101228.78
2023-01-29T19:38:37.891Z,101210.09
2023-01-29T19:41:06.198Z,101215.66
2023-01-29T19:43:34.209Z,101221.22
2023-01-29T19:46:03.388Z,101214.38
2023-01-29T19:48:31.275Z,101215.69
2023-01-29T19:51:00.374Z,101222.22
2023-01-29T19:53:34.176Z,101212.94
2023-01-29T19:56:03.698Z,101194.53
2023-01-29T19:58:32.176Z,101192.81
2023-01-29T20:01:04.122Z,101174.50
2023-01-29T20:03:32.583Z,101191.84
2023-01-29T20:06:03.725Z,101170.06
2023-01-29T20:08:35.039Z,101166.69
2023-01-29T20:11:05.444Z,101152.59
2023-01-29T20:13:33.921Z,101141.47
2023-01-29T20:16:03.821Z,101146.94
2023-01-29T20:18:31.906Z,101152.44
2023-01-29T20:21:00.143Z,101142.84
2023-01-29T20:23:37.726Z,101144.13
2023-01-29T20:26:08.556Z,101139.38
2023-01-29T20:28:36.630Z,101116.31
2023-01-29T20:31:05.328Z,101106.50
2023-01-29T20:33:33.664Z,101120.50
2023-01-29T20:36:06.242Z,101106.69
2023-01-29T20:38:34.621Z,101111.19
2023-01-29T20:41:09.112Z,101094.19
2023-01-29T20:43:37.101Z,101102.34
2023-01-29T20:46:05.868Z,101100.72
2023-01-29T20:48:33.867Z,101103.09
2023-01-29T20:51:06.356Z,101091.88
2023-01-29T20:53:34.020Z,101089.53
2023-01-29T20:56:04.173Z,101085.38
2023-01-29T20:58:33.336Z,101078.03
2023-01-29T21:01:01.312Z,101081.38
2023-01-29T21:03:28.955Z,101076.47
2023-01-29T21:05:58.929Z,101074.63
2023-01-29T21:08:26.502Z,101069.56
2023-01-29T21:10:54.268Z,101075.50
2023-01-29T21:13:21.841Z,101070.25
2023-01-29T21:15:51.839Z,101069.44
2023-01-29T21:18:19.495Z,101073.38
2023-01-29T21:20:49.542Z,101076.19
2023-01-29T21:23:17.189Z,101086.34
2023-01-29T21:25:45.168Z,101077.91
2023-01-29T21:28:13.400Z,101078.88
2023-01-29T21:30:41.112Z,101065.66
2023-01-29T21:33:10.134Z,101053.44
2023-01-29T21:35:38.348Z,101051.22
2023-01-29T21:38:06.324Z,101058.94
2023-01-29T21:40:34.363Z,101054.59
2023-01-29T21:43:13.159Z,101049.22
2023-01-29T21:45:41.486Z,101048.97
2023-01-29T21:48:11.603Z,101045.44
2023-01-29T21:50:39.943Z,101037.72
2023-01-29T21:53:07.759Z,101041.66
2023-01-29T21:55:35.429Z,101036.72
2023-01-29T21:58:04.183Z,101049.38
2023-01-29T22:00:31.995Z,101028.56
2023-01-29T22:02:59.764Z,101022.78
2023-01-29T22:05:29.228Z,101023.66
2023-01-29T22:07:57.098Z,101023.66
2023-01-29T22:10:25.044Z,101026.88
2023-01-29T22:12:52.845Z,101009.28
2023-01-29T22:15:22.500Z,101015.19
2023-01-29T22:17:51.121Z,101016.59
2023-01-29T22:20:19.482Z,101006.19
2023-01-29T22:22:48.718Z,101012.53
2023-01-29T22:25:19.835Z,101005.19
2023-01-29T22:27:47.446Z,101005.63
2023-01-29T22:30:15.349Z,101008.16
2023-01-29T22:32:43.166Z,101016.91
2023-01-29T22:35:10.860Z,101017.03
2023-01-29T22:37:38.468Z,101005.38
2023-01-29T22:40:08.919Z,100987.34
2023-01-29T22:42:36.521Z,100997.88
2023-01-29T22:45:04.453Z,100988.47
2023-01-29T22:47:33.487Z,100986.78
2023-01-29T22:50:01.039Z,100993.53
2023-01-29T22:52:38.490Z,100994.09
2023-01-29T22:55:11.861Z,100990.16
2023-01-29T22:57:40.098Z,100987.34
2023-01-29T23:00:11.588Z,100975.53
2023-01-29T23:02:39.213Z,100984.53
2023-01-29T23:05:07.798Z,100954.09
2023-01-29T23:07:35.457Z,100935.00
2023-01-29T23:10:03.304Z,100919.22
2023-01-29T23:12:32.251Z,100920.34
2023-01-29T23:15:00.356Z,100907.69
2023-01-29T23:17:28.206Z,100862.63
2023-01-29T23:19:55.866Z,100842.66
2023-01-29T23:22:23.587Z,100823.50
2023-01-29T23:24:51.518Z,100810.97
2023-01-29T23:27:18.329Z,100812.81
2023-01-29T23:29:49.019Z,100822.78
2023-01-29T23:32:21.246Z,100821.25
2023-01-29T23:34:48.991Z,100825.47
2023-01-29T23:37:16.823Z,100828.03
2023-01-29T23:39:44.446Z,100818.44
2023-01-29T23:42:12.375Z,100831.78
2023-01-29T23:44:40.930Z,100815.19
2023-01-29T23:47:10.588Z,100813.34
2023-01-29T23:49:38.270Z,100795.84
2023-01-29T23:52:07.678Z,100801.19
2023-01-29T23:54:35.378Z,100786.00
2023-01-29T23:57:03.093Z,100779.53
2023-01-29T23:59:30.682Z,100766.81
